Time;durP1;ratioP1;P1;durP2;ratioP2;P2;SDS_P1;SDS_P2;PMS_P1;PMS_P2;Temp;Humidity;BMP_temperature;BMP_pressure;BME280_temperature;BME280_humidity;BME280_pressure;Samples;Min_cycle;Max_cycle;Signal;HPM_P1;HPM_P2
2022/02/09 00:02:18;;;;;;;3.05;0.70;;;;;;;;;;5053757;28;20116;-47
2022/02/09 00:05:22;;;;;;;1.08;0.68;;;;;;;;;;5053419;28;20055;-47
2022/02/09 00:07:25;;;;;;;2.80;0.60;;;;;;;;;;5053073;28;20497;-46
2022/02/09 00:09:51;;;;;;;1.05;0.50;;;;;;;;;;5053601;28;20108;-46
2022/02/09 00:12:34;;;;;;;0.85;0.50;;;;;;;;;;5053865;28;20029;-46
2022/02/09 00:15:52;;;;;;;1.58;0.60;;;;;;;;;;5053470;28;20495;-46
2022/02/09 00:29:01;;;;;;;0.65;0.40;;;;;;;;;;5053550;28;20048;-46
2022/02/09 00:59:07;;;;;;;1.92;0.50;;;;;;;;;;5052771;28;20040;-46
2022/02/09 00:59:14;;;;;;;0.93;0.60;;;;;;;;;;5053135;28;20551;-45
2022/02/09 01:33:04;;;;;;;0.50;0.30;;;;;;;;;;5052733;28;20039;-46
2022/02/09 01:55:25;;;;;;;1.00;0.40;;;;;;;;;;5052301;28;20040;-45
2022/02/09 01:56:48;;;;;;;0.95;0.40;;;;;;;;;;5051919;28;20043;-45
2022/02/09 01:59:14;;;;;;;0.45;0.30;;;;;;;;;;5051807;28;20037;-45
2022/02/09 02:01:40;;;;;;;1.02;0.50;;;;;;;;;;5051802;28;20104;-46
2022/02/09 02:04:06;;;;;;;0.55;0.30;;;;;;;;;;5051831;28;20025;-45
2022/02/09 02:06:34;;;;;;;0.47;0.32;;;;;;;;;;5051765;28;20451;-45
2022/02/09 02:09:00;;;;;;;0.60;0.47;;;;;;;;;;5051816;28;20021;-45
2022/02/09 02:11:34;;;;;;;1.13;0.40;;;;;;;;;;5051739;28;20047;-44
2022/02/09 02:16:53;;;;;;;1.42;0.60;;;;;;;;;;5051695;28;20171;-45
2022/02/09 02:25:09;;;;;;;0.40;0.30;;;;;;;;;;5051902;28;20036;-45
2022/02/09 03:10:49;;;;;;;0.40;0.30;;;;;;;;;;5054960;28;20036;-45
2022/02/09 03:13:20;;;;;;;0.63;0.40;;;;;;;;;;5054461;28;20540;-45
2022/02/09 03:16:27;;;;;;;0.52;0.50;;;;;;;;;;5054405;28;20040;-45
2022/02/09 03:53:49;;;;;;;0.55;0.47;;;;;;;;;;5054211;28;20029;-45
2022/02/09 03:56:41;;;;;;;0.90;0.45;;;;;;;;;;5053748;28;20051;-45
2022/02/09 03:59:07;;;;;;;0.40;0.40;;;;;;;;;;5053795;28;20609;-45
2022/02/09 04:01:37;;;;;;;0.47;0.38;;;;;;;;;;5053639;28;20483;-45
2022/02/09 04:04:03;;;;;;;1.10;0.47;;;;;;;;;;5053668;28;20025;-46
2022/02/09 04:06:34;;;;;;;0.40;0.20;;;;;;;;;;5053613;28;20503;-45
2022/02/09 04:09:01;;;;;;;0.35;0.30;;;;;;;;;;5053589;28;20495;-45
2022/02/09 04:12:29;;;;;;;0.77;0.40;;;;;;;;;;5053522;28;20394;-45
2022/02/09 04:14:25;;;;;;;0.60;0.30;;;;;;;;;;5052900;28;20037;-45
2022/02/09 04:19:44;;;;;;;0.47;0.40;;;;;;;;;;5053716;28;20032;-45
2022/02/09 04:23:06;;;;;;;1.13;0.43;;;;;;;;;;5053303;28;20498;-45
2022/02/09 04:38:47;;;;;;;1.60;0.20;;;;;;;;;;5053311;28;20037;-45
2022/02/09 04:57:01;;;;;;;0.45;0.30;;;;;;;;;;5052904;28;20053;-45
2022/02/09 05:00:19;;;;;;;0.43;0.30;;;;;;;;;;5052732;28;20112;-46
2022/02/09 05:17:40;;;;;;;0.40;0.30;;;;;;;;;;5052177;28;20075;-46
2022/02/09 05:26:38;;;;;;;0.50;0.40;;;;;;;;;;5052266;28;20437;-45
2022/02/09 05:29:05;;;;;;;0.25;0.25;;;;;;;;;;5052500;28;20036;-47
2022/02/09 05:31:31;;;;;;;0.90;0.68;;;;;;;;;;5052483;28;20025;-46
2022/02/09 05:33:57;;;;;;;0.45;0.40;;;;;;;;;;5052109;28;20467;-46
2022/02/09 05:36:23;;;;;;;0.60;0.40;;;;;;;;;;5051876;28;20056;-46
2022/02/09 05:38:49;;;;;;;0.70;0.30;;;;;;;;;;5052130;28;20021;-45
2022/02/09 05:41:16;;;;;;;0.43;0.30;;;;;;;;;;5052104;28;20033;-46
2022/02/09 05:43:42;;;;;;;0.55;0.30;;;;;;;;;;5052149;28;20025;-46
2022/02/09 05:56:33;;;;;;;0.40;0.20;;;;;;;;;;5052133;28;20068;-45
2022/02/09 06:01:44;;;;;;;0.43;0.20;;;;;;;;;;5052173;28;20059;-45
2022/02/09 06:04:10;;;;;;;0.40;0.30;;;;;;;;;;5051823;28;20021;-45
2022/02/09 06:06:36;;;;;;;0.40;0.32;;;;;;;;;;5051954;28;20471;-46
2022/02/09 06:09:02;;;;;;;0.40;0.30;;;;;;;;;;5051945;28;20036;-46
2022/02/09 06:11:36;;;;;;;0.80;0.40;;;;;;;;;;5051815;28;20025;-46
2022/02/09 06:14:39;;;;;;;0.28;0.28;;;;;;;;;;5052359;28;20033;-46
2022/02/09 06:19:53;;;;;;;0.30;0.30;;;;;;;;;;5055916;28;20549;-46
2022/02/09 06:22:19;;;;;;;0.33;0.20;;;;;;;;;;5055779;28;20445;-46
2022/02/09 06:24:45;;;;;;;0.50;0.50;;;;;;;;;;5055695;28;20029;-49
2022/02/09 06:27:13;;;;;;;0.57;0.40;;;15.70;91.40;;;;;;5055629;28;20029;-46
2022/02/09 06:29:44;;;;;;;0.43;0.32;;;;;;;;;;5056100;28;20025;-46
2022/02/09 06:32:10;;;;;;;0.50;0.32;;;;;;;;;;5055548;28;20025;-46
2022/02/09 06:34:39;;;;;;;1.70;0.57;;;;;;;;;;5055447;28;20098;-45
2022/02/09 06:37:20;;;;;;;0.68;0.30;;;15.90;90.90;;;;;;5055388;28;20129;-45
2022/02/09 06:39:54;;;;;;;0.70;0.40;;;15.90;91.20;;;;;;5055657;28;20025;-45
2022/02/09 06:42:23;;;;;;;0.30;0.30;;;;;;;;;;5055559;28;20021;-46
2022/02/09 06:44:56;;;;;;;0.67;0.50;;;15.90;88.40;;;;;;5055322;28;20025;-44
2022/02/09 06:47:25;;;;;;;1.42;0.50;;;;;;;;;;5055407;28;20033;-45
2022/02/09 06:49:59;;;;;;;14.45;1.10;;;;;;;;;;5055064;28;20025;-46
2022/02/09 06:52:25;;;;;;;0.95;0.30;;;;;;;;;;5055073;28;20475;-45
2022/02/09 06:55:09;;;;;;;2.63;0.40;;;;;;;;;;5054989;28;20029;-44
2022/02/09 06:57:57;;;;;;;1.70;1.00;;;;;;;;;;5055311;28;20025;-46
2022/02/09 07:00:22;;;;;;;1.40;0.38;;;15.90;90.60;;;;;;5054945;28;20025;-45
2022/02/09 07:02:49;;;;;;;1.02;0.50;;;;;;;;;;5054722;28;20037;-44
2022/02/09 07:05:15;;;;;;;0.52;0.32;;;;;;;;;;5054343;28;20035;-45
2022/02/09 07:07:42;;;;;;;0.73;0.50;;;;;;;;;;5054264;28;20020;-44
2022/02/09 07:10:10;;;;;;;0.38;0.30;;;;;;;;;;5054481;28;20025;-45
2022/02/09 07:12:38;;;;;;;0.95;0.50;;;;;;;;;;5054279;28;20032;-44
2022/02/09 07:15:04;;;;;;;0.80;0.40;;;;;;;;;;5054767;28;20392;-45
2022/02/09 07:17:31;;;;;;;1.17;0.32;;;;;;;;;;5054789;28;20040;-45
2022/02/09 07:20:08;;;;;;;0.90;0.50;;;;;;;;;;5054737;28;20029;-44
2022/02/09 07:22:37;;;;;;;3.00;0.40;;;;;;;;;;5054146;28;20060;-46
2022/02/09 07:25:09;;;;;;;2.42;0.70;;;;;;;;;;5054007;28;20032;-44
2022/02/09 07:27:51;;;;;;;6.78;0.70;;;;;;;;;;5053953;28;20513;-44
2022/02/09 07:30:22;;;;;;;7.30;1.02;;;15.80;92.40;;;;;;5053789;28;20025;-44
2022/02/09 07:32:51;;;;;;;9.18;1.45;;;15.80;92.40;;;;;;5054203;28;20036;-44
2022/02/09 07:35:17;;;;;;;5.50;0.75;;;;;;;;;;5053910;28;20056;-44
2022/02/09 07:37:43;;;;;;;4.28;0.90;;;;;;;;;;5053891;28;20025;-44
2022/02/09 07:40:11;;;;;;;8.30;1.00;;;;;;;;;;5054026;28;20032;-44
2022/02/09 07:42:44;;;;;;;5.63;0.70;;;;;;;;;;5053723;28;20025;-44
2022/02/09 07:53:05;;;;;;;5.05;1.05;;;;;;;;;;5054300;28;20052;-44
2022/02/09 07:55:31;;;;;;;8.25;1.02;;;;;;;;;;5053786;28;20036;-44
2022/02/09 07:57:58;;;;;;;4.40;1.30;;;;;;;;;;5053850;28;20025;-44
2022/02/09 08:00:24;;;;;;;4.55;1.15;;;;;;;;;;5053790;28;20036;-43
2022/02/09 08:02:52;;;;;;;3.08;1.08;;;;;;;;;;5053811;28;20025;-44
2022/02/09 08:05:18;;;;;;;7.80;1.42;;;;;;;;;;5053692;28;20079;-44
2022/02/09 08:07:44;;;;;;;3.67;1.13;;;;;;;;;;5053724;28;20082;-45
2022/02/09 08:29:20;;;;;;;4.43;1.30;;;15.60;91.10;;;;;;5053447;28;20461;-45
2022/02/09 08:34:24;;;;;;;1.35;0.77;;;;;;;;;;5053462;28;20025;-45
2022/02/09 08:36:52;;;;;;;3.50;1.25;;;;;;;;;;5053091;28;20041;-45
2022/02/09 08:39:18;;;;;;;6.03;1.30;;;;;;;;;;5053428;28;20029;-44
2022/02/09 08:41:44;;;;;;;2.63;1.08;;;;;;;;;;5052374;28;20029;-44
2022/02/09 08:44:10;;;;;;;1.55;1.00;;;;;;;;;;5052962;28;20055;-45
2022/02/09 08:46:37;;;;;;;7.88;1.20;;;;;;;;;;5053249;28;20391;-45
2022/02/09 08:49:03;;;;;;;4.07;1.23;;;;;;;;;;5052899;28;20147;-45
2022/02/09 08:51:29;;;;;;;5.32;1.33;;;;;;;;;;5052951;28;20376;-45
2022/02/09 08:53:56;;;;;;;4.25;1.40;;;;;;;;;;5052921;28;20075;-45
2022/02/09 08:56:24;;;;;;;5.68;1.20;;;;;;;;;;5052780;28;20032;-46
2022/02/09 08:58:51;;;;;;;2.15;1.52;;;;;;;;;;5052817;28;20387;-45
2022/02/09 09:01:27;;;;;;;1.67;1.17;;;;;;;;;;5052755;28;20021;-46
2022/02/09 09:03:56;;;;;;;1.83;1.20;;;;;;;;;;5052805;28;20029;-44
2022/02/09 09:06:26;;;;;;;1.85;1.17;;;;;;;;;;5052689;28;20035;-45
2022/02/09 09:11:42;;;;;;;2.67;1.05;;;;;;;;;;5052942;28;20178;-45
2022/02/09 09:17:20;;;;;;;1.73;1.40;;;;;;;;;;5052458;28;20063;-45
2022/02/09 09:58:07;;;;;;;1.92;1.38;;;;;;;;;;5056254;28;20031;-44
2022/02/09 10:34:22;;;;;;;4.50;2.50;;;16.10;93.30;;;;;;5055918;28;20220;-45
2022/02/09 10:36:51;;;;;;;3.85;2.65;;;;;;;;;;5055441;28;20049;-46
2022/02/09 10:39:29;;;;;;;3.05;2.15;;;16.10;93.10;;;;;;5055400;28;20067;-45
2022/02/09 10:44:45;;;;;;;3.75;1.90;;;;;;;;;;5055720;28;20094;-46
2022/02/09 10:47:36;;;;;;;3.53;1.90;;;16.30;89.80;;;;;;5055211;28;20063;-45
2022/02/09 10:50:14;;;;;;;2.58;1.73;;;16.50;89.10;;;;;;5053953;28;20025;-45
2022/02/09 10:52:42;;;;;;;2.85;1.67;;;16.40;92.60;;;;;;5055196;28;20079;-45
2022/02/09 10:55:31;;;;;;;2.53;2.03;;;;;;;;;;5055270;28;20025;-45
2022/02/09 10:57:58;;;;;;;2.58;2.00;;;;;;;;;;5052107;28;20037;-46
2022/02/09 11:00:24;;;;;;;2.97;2.22;;;16.40;92.20;;;;;;5054954;28;20036;-45
2022/02/09 11:02:50;;;;;;;3.40;2.20;;;;;;;;;;5054656;28;20029;-45
2022/02/09 11:05:19;;;;;;;2.42;2.17;;;16.30;94.30;;;;;;5054858;28;20108;-45
2022/02/09 11:07:45;;;;;;;3.17;2.35;;;;;;;;;;5054802;28;20476;-44
2022/02/09 11:10:11;;;;;;;2.92;1.88;;;;;;;;;;5054870;28;20033;-44
2022/02/09 11:12:37;;;;;;;3.10;2.00;;;;;;;;;;5054938;28;20379;-45
2022/02/09 11:15:05;;;;;;;3.28;2.00;;;;;;;;;;5054273;28;20108;-44
2022/02/09 11:17:32;;;;;;;2.00;1.75;;;16.10;92.70;;;;;;5054373;28;20025;-44
2022/02/09 11:19:58;;;;;;;2.33;1.88;;;;;;;;;;5054550;28;20387;-44
2022/02/09 11:22:29;;;;;;;2.28;1.90;;;;;;;;;;5054886;28;20025;-44
2022/02/09 11:25:12;;;;;;;2.28;1.83;;;16.10;94.80;;;;;;5054603;28;20032;-44
2022/02/09 11:27:45;;;;;;;2.50;2.03;;;;;;;;;;5054454;28;20052;-44
2022/02/09 11:30:17;;;;;;;2.20;2.00;;;;;;;;;;5054173;28;20036;-44
2022/02/09 11:33:24;;;;;;;2.00;1.80;;;16.20;91.90;;;;;;5054342;28;20029;-45
2022/02/09 11:36:37;;;;;;;1.92;1.70;;;;;;;;;;5054133;28;20769;-44
2022/02/09 11:39:04;;;;;;;2.03;1.83;;;;;;;;;;5054059;28;20059;-45
2022/02/09 11:41:37;;;;;;;1.95;1.85;;;;;;;;;;5054297;28;20102;-44
2022/02/09 11:44:10;;;;;;;3.97;1.70;;;;;;;;;;5054281;28;20052;-44
2022/02/09 11:47:22;;;;;;;1.98;1.80;;;16.10;93.70;;;;;;5054168;28;20029;-44
2022/02/09 11:55:58;;;;;;;1.77;1.67;;;;;;;;;;5054021;28;20067;-44
2022/02/09 12:12:00;;;;;;;1.75;1.48;;;16.00;95.90;;;;;;5053954;28;20087;-45
2022/02/09 12:15:14;;;;;;;1.88;1.52;;;16.00;93.20;;;;;;5053379;28;20490;-44
2022/02/09 12:20:21;;;;;;;1.92;1.60;;;;;;;;;;5053811;28;20033;-43
2022/02/09 12:23:27;;;;;;;2.03;1.83;;;;;;;;;;5053446;28;20072;-43
2022/02/09 12:25:42;;;;;;;2.15;1.40;;;;;;;;;;5053118;28;20348;-43
2022/02/09 12:28:08;;;;;;;1.70;1.60;;;;;;;;;;5053502;28;20495;-45
2022/02/09 12:30:34;;;;;;;1.75;1.65;;;;;;;;;;5053244;28;20029;-43
2022/02/09 12:33:00;;;;;;;1.52;1.42;;;;;;;;;;5053327;28;20025;-43
2022/02/09 12:35:26;;;;;;;2.13;1.50;;;;;;;;;;5053065;28;20499;-44
2022/02/09 12:37:53;;;;;;;1.55;1.45;;;16.20;94.90;;;;;;5053195;28;20057;-45
2022/02/09 12:40:20;;;;;;;1.60;1.42;;;;;;;;;;5053214;28;20029;-43
2022/02/09 12:42:51;;;;;;;1.67;1.58;;;16.30;95.60;;;;;;5053102;28;20024;-44
2022/02/09 12:45:21;;;;;;;1.98;1.50;;;16.30;93.00;;;;;;5053100;28;20016;-44
2022/02/09 12:47:50;;;;;;;2.10;1.70;;;16.30;95.90;;;;;;5053044;28;20086;-43
2022/02/09 12:50:26;;;;;;;1.33;1.23;;;16.40;95.70;;;;;;5052869;28;20064;-43
2022/02/09 12:52:53;;;;;;;1.33;1.20;;;;;;;;;;5053093;28;20021;-43
2022/02/09 12:55:20;;;;;;;1.70;1.60;;;;;;;;;;5052802;28;20036;-43
2022/02/09 12:57:50;;;;;;;1.52;1.42;;;16.50;95.70;;;;;;5052786;28;20032;-43
2022/02/09 13:00:40;;;;;;;1.38;1.27;;;16.50;92.90;;;;;;5052827;28;20040;-43
2022/02/09 13:03:35;;;;;;;1.92;1.40;;;16.60;96.10;;;;;;5052700;28;20090;-43
2022/02/09 13:06:02;;;;;;;1.33;1.23;;;;;;;;;;5048128;28;20044;-43
2022/02/09 13:08:29;;;;;;;3.80;1.38;;;16.90;95.90;;;;;;5052729;28;20045;-43
2022/02/09 13:11:04;;;;;;;1.20;1.10;;;17.00;92.90;;;;;;5052704;28;20025;-43
2022/02/09 13:13:32;;;;;;;1.05;1.00;;;;;;;;;;5052580;28;20021;-43
2022/02/09 13:18:42;;;;;;;1.38;1.27;;;17.60;95.40;;;;;;5052557;28;20123;-43
2022/02/09 14:14:57;;;;;;;1.45;1.00;;;;;;;;;;5052261;28;20076;-44
2022/02/09 14:52:38;;;;;;;0.90;0.90;;;;;;;;;;5055417;28;20120;-44
2022/02/09 14:57:52;;;;;;;1.10;1.00;;;;;;;;;;5055316;28;20045;-44
2022/02/09 15:00:22;;;;;;;0.95;0.85;;;;;;;;;;5055114;28;20029;-44
2022/02/09 15:08:30;;;;;;;1.45;0.80;;;;;;;;;;5055048;28;20040;-43
2022/02/09 15:14:07;;;;;;;0.85;0.85;;;;;;;;;;5055059;28;20039;-45
2022/02/09 15:16:33;;;;;;;1.05;0.70;;;;;;;;;;5054344;28;20045;-44
2022/02/09 15:24:17;;;;;;;0.98;0.88;;;;;;;;;;5054872;28;20107;-44
2022/02/09 15:26:46;;;;;;;1.23;1.02;;;;;;;;;;5036975;28;20029;-44
2022/02/09 15:29:15;;;;;;;1.10;1.00;;;;;;;;;;5054359;28;20021;-44
2022/02/09 15:31:51;;;;;;;1.03;0.90;;;;;;;;;;5054493;28;20029;-45
2022/02/09 15:34:25;;;;;;;1.20;1.08;;;;;;;;;;5054276;28;20276;-44
2022/02/09 15:39:21;;;;;;;3.60;1.05;;;;;;;;;;5054406;28;20029;-44
2022/02/09 15:42:07;;;;;;;0.77;0.73;;;;;;;;;;5053763;28;20362;-44
2022/02/09 15:58:47;;;;;;;1.13;1.02;;;;;;;;;;5053932;28;20040;-44
2022/02/09 16:18:14;;;;;;;1.67;0.82;;;;;;;;;;5053246;28;20147;-45
2022/02/09 16:23:02;;;;;;;0.70;0.70;;;;;;;;;;5053530;28;20037;-45
2022/02/09 16:36:52;;;;;;;1.08;0.65;;;;;;;;;;5052861;28;20106;-46
2022/02/09 16:44:17;;;;;;;1.85;0.77;;;;;;;;;;5052821;28;20051;-46
2022/02/09 16:44:37;;;;;;;0.77;0.77;;;;;;;;;;5053202;28;20102;-45
2022/02/09 16:47:05;;;;;;;3.03;1.35;;;;;;;;;;5053119;28;20029;-45
2022/02/09 16:49:49;;;;;;;1.48;1.00;;;;;;;;;;5052781;28;20055;-45
2022/02/09 16:52:22;;;;;;;2.25;0.73;;;;;;;;;;5053105;28;20083;-46
2022/02/09 16:55:33;;;;;;;1.08;0.98;;;;;;;;;;5052667;28;20116;-47
2022/02/09 17:11:14;;;;;;;0.82;0.82;;;;;;;;;;5052382;28;20126;-46
2022/02/09 17:19:36;;;;;;;1.88;0.80;;;;;;;;;;5052843;28;20498;-44
2022/02/09 17:22:02;;;;;;;2.85;1.27;;;;;;;;;;5052183;28;20028;-44
2022/02/09 17:24:28;;;;;;;1.08;0.80;;;;;;;;;;5052262;28;20026;-45
2022/02/09 17:26:54;;;;;;;1.10;1.00;;;;;;;;;;5052107;28;20040;-44
2022/02/09 17:29:24;;;;;;;3.20;1.00;;;;;;;;;;5052210;28;20036;-46
2022/02/09 17:32:08;;;;;;;1.98;1.30;;;;;;;;;;5052034;28;20033;-45
2022/02/09 17:53:46;;;;;;;2.35;1.15;;;;;;;;;;5052130;28;20044;-43
2022/02/09 17:56:22;;;;;;;1.75;0.80;;;;;;;;;;5051717;28;20041;-44
2022/02/09 17:58:51;;;;;;;2.40;1.05;;;;;;;;;;5051754;28;20126;-43
2022/02/09 18:01:19;;;;;;;2.30;1.02;;;17.50;89.70;;;;;;5051694;28;20033;-42
2022/02/09 18:03:45;;;;;;;1.67;1.10;;;;;;;;;;5052038;28;20056;-43
2022/02/09 18:06:22;;;;;;;1.63;1.00;;;;;;;;;;5051978;28;20029;-44
2022/02/09 18:09:11;;;;;;;3.50;1.00;;;;;;;;;;5052003;28;20021;-45
2022/02/09 18:44:19;;;;;;;3.08;1.52;;;;;;;;;;5055676;28;20040;-43
2022/02/09 18:46:37;;;;;;;7.25;1.67;;;;;;;;;;5054690;28;20506;-43
2022/02/09 18:56:56;;;;;;;3.30;1.88;;;;;;;;;;5055590;28;20035;-43
2022/02/09 19:00:57;;;;;;;3.95;2.30;;;;;;;;;;5055263;28;20392;-45
2022/02/09 19:02:57;;;;;;;3.72;2.10;;;;;;;;;;5054716;28;20445;-44
2022/02/09 19:05:33;;;;;;;4.82;1.80;;;;;;;;;;5055065;28;20067;-43
2022/02/09 19:19:25;;;;;;;1.90;1.50;;;;;;;;;;5054704;28;20025;-46
2022/02/09 19:40:52;;;;;;;5.20;2.10;;;;;;;;;;5052167;28;20072;-44
2022/02/09 19:48:27;;;;;;;3.40;2.20;;;;;;;;;;5054125;28;20036;-43
2022/02/09 19:55:56;;;;;;;2.45;1.70;;;;;;;;;;5054008;28;20391;-43
2022/02/09 19:58:29;;;;;;;3.05;1.95;;;;;;;;;;5053956;28;20124;-43
2022/02/09 20:00:58;;;;;;;6.20;2.25;;;;;;;;;;5053945;28;20032;-45
2022/02/09 20:03:23;;;;;;;3.47;2.22;;;;;;;;;;5053922;28;20479;-45
2022/02/09 20:05:49;;;;;;;3.83;1.95;;;;;;;;;;5053859;28;20025;-44
2022/02/09 20:08:15;;;;;;;3.20;1.60;;;;;;;;;;5053883;28;20482;-44
2022/02/09 20:10:42;;;;;;;6.82;1.70;;;;;;;;;;5053710;28;20025;-44
2022/02/09 20:13:08;;;;;;;2.15;1.60;;;;;;;;;;5053797;28;20025;-46
2022/02/09 20:15:34;;;;;;;4.40;1.65;;;;;;;;;;5053091;28;20033;-44
2022/02/09 20:18:00;;;;;;;3.00;1.75;;;;;;;;;;5053074;28;20174;-44
2022/02/09 20:20:29;;;;;;;3.88;2.00;;;;;;;;;;5053567;28;20438;-44
2022/02/09 20:22:56;;;;;;;1.65;1.50;;;;;;;;;;5053866;28;20455;-45
2022/02/09 20:25:23;;;;;;;4.13;1.70;;;;;;;;;;5053525;28;20060;-45
2022/02/09 20:27:52;;;;;;;1.92;1.48;;;;;;;;;;5053467;28;20040;-44
2022/02/09 20:30:22;;;;;;;2.83;2.05;;;;;;;;;;5053382;28;20025;-44
2022/02/09 20:32:53;;;;;;;2.15;1.50;;;;;;;;;;5053318;28;20554;-44
2022/02/09 20:35:20;;;;;;;2.47;1.52;;;;;;;;;;5052990;28;20057;-44
2022/02/09 20:37:49;;;;;;;2.88;1.88;;;;;;;;;;5052069;28;20033;-44
2022/02/09 20:40:33;;;;;;;3.67;1.77;;;;;;;;;;5052992;28;20071;-45
2022/02/09 20:43:01;;;;;;;3.83;2.00;;;;;;;;;;5052762;28;20491;-45
2022/02/09 20:48:04;;;;;;;2.45;1.55;;;;;;;;;;5053090;28;20237;-45
2022/02/09 20:50:32;;;;;;;2.42;1.75;;;16.60;93.70;;;;;;5053058;28;20060;-44
2022/02/09 20:52:58;;;;;;;2.88;1.65;;;;;;;;;;5053019;28;20036;-45
2022/02/09 20:55:26;;;;;;;2.80;1.55;;;;;;;;;;5053171;28;20169;-46
2022/02/09 20:57:52;;;;;;;2.28;1.60;;;;;;;;;;5052778;28;20086;-44
2022/02/09 21:00:27;;;;;;;3.53;2.10;;;;;;;;;;5052918;28;20025;-44
2022/02/09 21:03:02;;;;;;;2.95;1.90;;;;;;;;;;5053087;28;20044;-45
2022/02/09 21:24:01;;;;;;;5.43;3.38;;;;;;;;;;5052497;28;20029;-44
2022/02/09 21:32:30;;;;;;;10.75;3.95;;;;;;;;;;5052292;28;20071;-46
2022/02/09 22:50:38;;;;;;;3.97;2.60;;;;;;;;;;5051691;28;20046;-45
2022/02/09 22:55:49;;;;;;;2.63;1.90;;;;;;;;;;5051150;28;20048;-46
2022/02/09 22:58:16;;;;;;;4.15;2.45;;;;;;;;;;5051608;28;20025;-44
2022/02/09 23:03:15;;;;;;;4.00;2.33;;;;;;;;;;5055124;28;20029;-44
2022/02/09 23:16:26;;;;;;;3.22;2.22;;;;;;;;;;5054629;28;20041;-44
2022/02/09 23:56:43;;;;;;;3.15;1.85;;;;;;;;;;5054050;28;20499;-43
